Oney Z — J8B4719 — position and weather

sailwx.info

Track history (hours):
 
Tides and Currents Weather Stations Pressure Air Temp Water Temp Dewpoint Dewpoint Depression Visibility Wind Speed Wind Dir Waves Ship Positions

Oney Z

Last reported at 2016-Sep-25 12:18 UTC. Time now 2016-Sep-28 18:48 UTC.
Position N 36°50' E 013°45'.

Length 79 m; draft 3.4 m.

Type: Cargo ship. MMSI: 376099000.

Date/timePositionNaut miles runAvg speedWind from/ knotsBaromVisibWave heightAir tempDewpointWater temp
2016-Sep-25 12:18N 36°50' E 013°45'6 8.1
2016-Sep-25 11:33N 36°48' E 013°52'8 8.2
2016-Sep-25 10:33N 36°46' E 014°02'8 8.1
2016-Sep-25 09:33N 36°43' E 014°12'  
2016-Sep-21 09:32N 40°38' E 022°55'0 0.0
2016-Sep-21 08:32N 40°38' E 022°55'0 0.0
2016-Sep-21 05:32N 40°38' E 022°55'2 0.9
2016-Sep-21 03:28N 40°36' E 022°55'0 0.0
2016-Sep-21 02:28N 40°36' E 022°55'0 0.0
2016-Sep-20 17:22N 40°36' E 022°55'0 0.0
2016-Sep-20 14:33N 40°36' E 022°55'181 6.2
2016-Sep-19 09:30N 37°39' E 023°42'15 7.9
2016-Sep-19 07:33N 37°51' E 023°29'  
2016-Sep-16 00:22N 44°41' E 013°30'36 8.6
2016-Sep-15 20:11N 45°12' E 013°04'12 7.6
2016-Sep-15 18:33N 45°24' E 013°05'28 4.6
2016-Sep-15 12:33N 45°35' E 013°41'  
Track history (hours):
 
Tides and Currents Weather Stations Pressure Air Temp Water Temp Dewpoint Dewpoint Depression Visibility Wind Speed Wind Dir Waves Ship Positions

Oney Z

Last reported at 2016-Sep-25 12:18 UTC. Time now 2016-Sep-28 18:48 UTC.
Position N 36°50' E 013°45'.

Length 79 m; draft 3.4 m.

Type: Cargo ship. MMSI: 376099000.

Date/timePositionNaut miles runAvg speedWind from/ knotsBaromVisibWave heightAir tempDewpointWater temp
2016-Sep-25 12:18N 36°50' E 013°45'6 8.1
2016-Sep-25 11:33N 36°48' E 013°52'8 8.2
2016-Sep-25 10:33N 36°46' E 014°02'8 8.1
2016-Sep-25 09:33N 36°43' E 014°12'  
2016-Sep-21 09:32N 40°38' E 022°55'0 0.0
2016-Sep-21 08:32N 40°38' E 022°55'0 0.0
2016-Sep-21 05:32N 40°38' E 022°55'2 0.9
2016-Sep-21 03:28N 40°36' E 022°55'0 0.0
2016-Sep-21 02:28N 40°36' E 022°55'0 0.0
2016-Sep-20 17:22N 40°36' E 022°55'0 0.0
2016-Sep-20 14:33N 40°36' E 022°55'181 6.2
2016-Sep-19 09:30N 37°39' E 023°42'15 7.9
2016-Sep-19 07:33N 37°51' E 023°29'  
2016-Sep-16 00:22N 44°41' E 013°30'36 8.6
2016-Sep-15 20:11N 45°12' E 013°04'12 7.6
2016-Sep-15 18:33N 45°24' E 013°05'28 4.6
2016-Sep-15 12:33N 45°35' E 013°41'  

Dump ship's entire track history